Track Ехтанигов Темир

Time Latitude Longitude Accuracy (66% radius in meters) Altitude (meters) Speed (km/hour) Bearing (degrees) Battery (%) GPS flag
06:44:08 57.203293 60.119483 0 0 0 0 1 delete
06:44:07 57.203284 60.119496 0 0 0 0 1 delete
06:44:06 57.203256 60.119516 0 0 0 0 1 delete
06:44:05 57.203204 60.119531 0 0 0 0 1 delete
06:44:04 57.203138 60.119532 0 0 0 0 1 delete
06:44:03 57.203067 60.119523 0 0 0 0 1 delete
06:44:02 57.202994 60.119501 0 0 0 0 1 delete
06:44:01 57.202920 60.119467 0 0 0 0 1 delete
06:44:00 57.202845 60.119420 0 0 0 0 1 delete
06:43:59 57.202773 60.119368 0 0 0 0 1 delete
06:43:58 57.202707 60.119312 0 0 0 0 1 delete
06:43:57 57.202646 60.119257 0 0 0 0 1 delete
06:43:56 57.202584 60.119208 0 0 0 0 1 delete
06:43:55 57.202523 60.119149 0 0 0 0 1 delete
06:43:54 57.202467 60.119071 0 0 0 0 1 delete
06:43:53 57.202422 60.118975 0 0 0 0 1 delete
06:43:52 57.202381 60.118869 0 0 0 0 1 delete
06:43:51 57.202345 60.118765 0 0 0 0 1 delete
06:43:50 57.202305 60.118658 0 0 0 0 1 delete
06:43:49 57.202265 60.118552 0 0 0 0 1 delete
06:43:48 57.202224 60.118443 0 0 0 0 1 delete
06:43:47 57.202199 60.118337 0 0 0 0 1 delete
06:43:46 57.202185 60.118242 0 0 0 0 1 delete
06:43:45 57.202187 60.118156 0 0 0 0 1 delete
06:43:44 57.202193 60.118080 0 0 0 0 1 delete
06:43:43 57.202202 60.118007 0 0 0 0 1 delete
06:43:42 57.202209 60.117936 0 0 0 0 1 delete
06:43:41 57.202209 60.117861 0 0 0 0 1 delete
06:43:40 57.202204 60.117779 0 0 0 0 1 delete
06:43:39 57.202191 60.117693 0 0 0 0 1 delete
06:43:38 57.202168 60.117611 0 0 0 0 1 delete
06:43:37 57.202135 60.117536 0 0 0 0 1 delete
06:43:36 57.202094 60.117451 0 0 0 0 1 delete
06:43:35 57.202049 60.117356 0 0 0 0 1 delete
06:43:34 57.201996 60.117270 0 0 0 0 1 delete
06:43:33 57.201937 60.117211 0 0 0 0 1 delete
06:43:32 57.201876 60.117171 0 0 0 0 1 delete
06:43:31 57.201816 60.117132 0 0 0 0 1 delete
06:43:30 57.201753 60.117094 0 0 0 0 1 delete
06:43:29 57.201692 60.117074 0 0 0 0 1 delete
06:43:28 57.201637 60.117079 0 0 0 0 1 delete
06:43:27 57.201588 60.117091 0 0 0 0 1 delete
06:43:26 57.201536 60.117117 0 0 0 0 1 delete
06:43:25 57.201479 60.117165 0 0 0 0 1 delete
06:43:24 57.201425 60.117221 0 0 0 0 1 delete
06:43:23 57.201376 60.117259 0 0 0 0 1 delete
06:43:22 57.201336 60.117262 0 0 0 0 1 delete
06:43:21 57.201298 60.117253 0 0 0 0 1 delete
06:43:20 57.201263 60.117238 0 0 0 0 1 delete
06:43:19 57.201232 60.117221 0 0 0 0 1 delete